Time;durP1;ratioP1;P1;durP2;ratioP2;P2;SDS_P1;SDS_P2;PMS_P1;PMS_P2;Temp;Humidity;BMP_temperature;BMP_pressure;BME280_temperature;BME280_humidity;BME280_pressure;Samples;Min_cycle;Max_cycle;Signal;HPM_P1;HPM_P2
2023/06/09 00:01:22;;;;;;;8.82;4.20;;;21.70;62.40;;;;;;6120880;23;20022;-65
2023/06/09 00:04:09;;;;;;;5.50;3.50;;;21.70;62.30;;;;;;6122205;23;20013;-66
2023/06/09 00:06:55;;;;;;;4.70;3.45;;;21.70;62.30;;;;;;6121976;23;20010;-65
2023/06/09 00:09:42;;;;;;;5.60;3.78;;;21.60;62.20;;;;;;6122141;23;20046;-65
2023/06/09 00:12:28;;;;;;;6.10;3.25;;;21.60;62.30;;;;;;6121301;23;20045;-66
2023/06/09 00:15:15;;;;;;;5.13;3.40;;;21.60;61.90;;;;;;6124698;23;20448;-66
2023/06/09 00:18:02;;;;;;;7.65;3.85;;;21.60;61.90;;;;;;6121801;23;20010;-66
2023/06/09 00:20:50;;;;;;;6.15;3.13;;;21.50;61.70;;;;;;6120625;23;20029;-66
2023/06/09 00:23:37;;;;;;;6.22;4.35;;;21.50;61.60;;;;;;6122941;23;20017;-66
2023/06/09 00:26:23;;;;;;;5.05;3.58;;;21.50;61.50;;;;;;6121614;23;20060;-66
2023/06/09 00:29:09;;;;;;;7.10;3.92;;;21.40;61.40;;;;;;6120683;23;20013;-66
2023/06/09 00:31:55;;;;;;;5.40;3.20;;;21.40;61.30;;;;;;6121968;23;20097;-66
2023/06/09 00:34:40;;;;;;;8.50;3.40;;;21.40;61.30;;;;;;6124107;23;20468;-65
2023/06/09 00:37:26;;;;;;;6.10;3.92;;;21.30;61.20;;;;;;6119967;23;20615;-65
2023/06/09 00:40:14;;;;;;;4.32;3.03;;;21.30;61.10;;;;;;6122385;23;20042;-66
2023/06/09 00:43:04;;;;;;;6.55;3.25;;;21.30;61.00;;;;;;6122260;23;20021;-67
2023/06/09 00:45:50;;;;;;;5.55;3.47;;;21.20;60.90;;;;;;6119894;23;20443;-66
2023/06/09 00:48:36;;;;;;;4.32;3.10;;;21.20;60.70;;;;;;6121039;23;20104;-67
2023/06/09 00:51:22;;;;;;;5.57;3.67;;;21.20;60.70;;;;;;6120699;23;20010;-67
2023/06/09 00:54:10;;;;;;;4.97;3.42;;;21.20;60.70;;;;;;6121620;23;20014;-67
2023/06/09 00:56:56;;;;;;;5.47;3.10;;;21.20;60.60;;;;;;6121029;23;20044;-68
2023/06/09 00:59:42;;;;;;;5.30;2.70;;;21.20;60.50;;;;;;6119995;23;20623;-68
2023/06/09 01:02:29;;;;;;;5.78;3.70;;;21.20;60.30;;;;;;6119188;23;20017;-68
2023/06/09 01:05:16;;;;;;;6.68;3.70;;;21.10;60.20;;;;;;6120312;23;20033;-67
2023/06/09 01:08:07;;;;;;;8.63;3.90;;;21.10;59.80;;;;;;6119942;23;20105;-67
2023/06/09 01:11:11;;;;;;;5.53;3.00;;;21.10;60.40;;;;;;6119626;23;20033;-67
2023/06/09 01:14:03;;;;;;;5.85;3.42;;;21.10;59.80;;;;;;6123341;23;20467;-72
2023/06/09 01:16:52;;;;;;;5.32;3.53;;;21.10;59.80;;;;;;6120347;23;20085;-73
2023/06/09 01:19:58;;;;;;;8.55;3.65;;;21.00;59.80;;;;;;6121550;23;20014;-73
2023/06/09 01:22:50;;;;;;;7.13;3.60;;;21.10;60.00;;;;;;6122048;23;20025;-73
2023/06/09 01:25:43;;;;;;;5.03;3.75;;;21.00;60.00;;;;;;6121369;23;20352;-73
2023/06/09 01:28:29;;;;;;;7.90;3.70;;;21.00;60.20;;;;;;6120271;23;20013;-74
2023/06/09 01:31:16;;;;;;;5.55;3.00;;;20.90;60.40;;;;;;6118942;23;20010;-74
2023/06/09 01:34:03;;;;;;;5.38;3.92;;;20.90;60.70;;;;;;6122072;23;20017;-73
2023/06/09 01:36:51;;;;;;;5.72;3.95;;;20.80;61.20;;;;;;6119599;23;20381;-73
2023/06/09 01:39:37;;;;;;;5.28;3.42;;;20.70;61.60;;;;;;6121870;23;20356;-72
2023/06/09 01:42:24;;;;;;;5.35;3.47;;;20.70;62.00;;;;;;6120393;23;20364;-73
2023/06/09 01:45:11;;;;;;;8.05;4.07;;;20.60;62.40;;;;;;6121871;23;20050;-73
2023/06/09 01:47:58;;;;;;;6.95;4.30;;;20.60;62.90;;;;;;6120875;23;20424;-72
2023/06/09 01:50:50;;;;;;;7.10;4.85;;;20.60;63.30;;;;;;6122095;23;20010;-73
2023/06/09 01:53:39;;;;;;;7.50;4.57;;;20.60;63.70;;;;;;6122724;23;20009;-71
2023/06/09 01:56:32;;;;;;;8.07;4.18;;;20.50;64.00;;;;;;6122272;23;20381;-72
2023/06/09 01:59:26;;;;;;;6.10;3.95;;;20.50;64.40;;;;;;6121491;23;20014;-72
2023/06/09 02:02:13;;;;;;;11.63;5.35;;;20.50;64.80;;;;;;6122298;23;20106;-75
2023/06/09 02:05:02;;;;;;;9.82;4.95;;;20.40;64.90;;;;;;6123392;23;20101;-69
2023/06/09 02:07:51;;;;;;;8.27;5.40;;;20.40;65.50;;;;;;6123765;23;20017;-69
2023/06/09 02:10:38;;;;;;;6.55;4.93;;;20.30;66.20;;;;;;6122332;23;20014;-69
2023/06/09 02:13:24;;;;;;;8.15;4.80;;;20.30;66.60;;;;;;6121890;23;20452;-68
2023/06/09 02:16:11;;;;;;;8.70;5.40;;;20.20;66.90;;;;;;6117074;23;20013;-69
2023/06/09 02:18:57;;;;;;;8.23;5.55;;;20.20;67.20;;;;;;6121429;23;20024;-69
2023/06/09 02:21:43;;;;;;;9.10;5.35;;;20.20;67.50;;;;;;6120499;23;20482;-69
2023/06/09 02:24:29;;;;;;;9.48;4.95;;;20.10;67.70;;;;;;6123228;23;20376;-68
2023/06/09 02:27:15;;;;;;;8.20;4.90;;;20.00;67.90;;;;;;6123664;23;20444;-69
2023/06/09 02:30:01;;;;;;;7.30;4.60;;;20.00;68.00;;;;;;6122106;23;20010;-68
2023/06/09 02:32:47;;;;;;;11.32;5.40;;;20.00;68.60;;;;;;6123158;23;20010;-68
2023/06/09 02:35:33;;;;;;;7.22;4.43;;;20.00;68.00;;;;;;6121512;23;20017;-69
2023/06/09 02:38:21;;;;;;;7.50;4.32;;;19.90;68.10;;;;;;6123845;23;20015;-69
2023/06/09 02:41:07;;;;;;;7.88;3.90;;;19.90;68.10;;;;;;6124467;23;20021;-69
2023/06/09 02:43:54;;;;;;;10.00;5.05;;;19.90;68.20;;;;;;6122682;23;20010;-69
2023/06/09 02:46:40;;;;;;;9.55;4.60;;;19.90;68.20;;;;;;6123582;23;20036;-69
2023/06/09 02:49:26;;;;;;;7.60;4.47;;;19.80;68.20;;;;;;6123373;23;20010;-69
2023/06/09 02:52:12;;;;;;;8.43;5.15;;;19.80;68.30;;;;;;6121862;23;20024;-69
2023/06/09 02:54:58;;;;;;;7.15;5.15;;;19.80;68.60;;;;;;6123353;23;20077;-68
2023/06/09 02:57:45;;;;;;;6.95;4.70;;;19.80;68.70;;;;;;6123235;23;20014;-69
2023/06/09 03:00:32;;;;;;;9.43;4.63;;;19.70;68.60;;;;;;6121922;23;20085;-69
2023/06/09 03:03:18;;;;;;;8.73;5.03;;;19.70;68.80;;;;;;6122737;23;20030;-69
2023/06/09 03:06:07;;;;;;;8.98;5.60;;;19.60;69.00;;;;;;6123139;23;20352;-69
2023/06/09 03:08:53;;;;;;;8.38;4.93;;;19.60;69.10;;;;;;6121425;23;20545;-69
2023/06/09 03:11:39;;;;;;;7.30;4.43;;;19.60;69.10;;;;;;6121768;23;20331;-69
2023/06/09 03:14:25;;;;;;;7.43;4.90;;;19.60;69.20;;;;;;6122251;23;20014;-69
2023/06/09 03:17:11;;;;;;;7.65;5.03;;;19.60;69.30;;;;;;6124763;23;20377;-69
2023/06/09 03:19:57;;;;;;;8.43;5.50;;;19.60;69.70;;;;;;6123852;23;20388;-68
2023/06/09 03:22:45;;;;;;;11.88;5.25;;;19.50;69.70;;;;;;6124419;23;20381;-69
2023/06/09 03:25:31;;;;;;;7.38;5.07;;;19.50;69.90;;;;;;6121881;23;20089;-68
2023/06/09 03:28:17;;;;;;;9.05;5.05;;;19.50;70.10;;;;;;6122217;23;20457;-68
2023/06/09 03:31:03;;;;;;;10.45;5.88;;;19.50;70.20;;;;;;6122581;23;20021;-68
2023/06/09 03:33:49;;;;;;;7.60;4.78;;;19.50;70.50;;;;;;6122277;23;20317;-69
2023/06/09 03:36:35;;;;;;;6.78;5.30;;;19.50;70.50;;;;;;6123920;23;20053;-69
2023/06/09 03:39:21;;;;;;;8.75;5.20;;;19.50;70.60;;;;;;6122010;23;20033;-69
2023/06/09 03:42:07;;;;;;;7.00;4.43;;;19.50;70.80;;;;;;6123661;23;20055;-69
2023/06/09 03:44:58;;;;;;;7.63;4.90;;;19.50;70.70;;;;;;6124387;23;20119;-69
2023/06/09 03:47:44;;;;;;;8.20;5.35;;;19.50;70.70;;;;;;6122461;23;20012;-69
2023/06/09 03:50:30;;;;;;;9.00;5.05;;;19.50;70.70;;;;;;6120357;23;20010;-69
2023/06/09 03:53:16;;;;;;;9.38;4.97;;;19.50;70.50;;;;;;6124367;23;20067;-68
2023/06/09 03:56:02;;;;;;;8.73;5.22;;;19.50;70.50;;;;;;6120741;23;20416;-68
2023/06/09 03:58:48;;;;;;;7.43;5.00;;;19.50;70.50;;;;;;6120786;23;20019;-68
2023/06/09 04:01:34;;;;;;;6.63;5.28;;;19.40;70.60;;;;;;6123523;23;20018;-69
2023/06/09 04:04:20;;;;;;;6.78;5.05;;;19.50;70.80;;;;;;6124250;23;20393;-68
2023/06/09 04:07:07;;;;;;;7.40;4.45;;;19.40;70.80;;;;;;6121604;23;20348;-69
2023/06/09 04:09:53;;;;;;;9.95;4.90;;;19.40;70.80;;;;;;6124041;23;20010;-68
2023/06/09 04:12:42;;;;;;;6.57;4.80;;;19.40;70.80;;;;;;6123826;23;20018;-69
2023/06/09 04:15:28;;;;;;;10.85;5.00;;;19.40;70.90;;;;;;6120624;23;20032;-68
2023/06/09 04:18:15;;;;;;;7.20;4.35;;;19.40;70.80;;;;;;6122297;23;20093;-69
2023/06/09 04:21:01;;;;;;;8.55;4.30;;;19.40;70.80;;;;;;6122018;23;20018;-70
2023/06/09 04:23:47;;;;;;;6.43;4.68;;;19.40;70.80;;;;;;6122735;23;20355;-69
2023/06/09 04:26:37;;;;;;;10.27;5.75;;;19.40;70.80;;;;;;6122807;23;20025;-69
2023/06/09 04:29:23;;;;;;;7.32;4.93;;;19.40;70.90;;;;;;6122033;23;20459;-69
2023/06/09 04:32:11;;;;;;;8.75;4.85;;;19.40;70.80;;;;;;6121570;23;20045;-69
2023/06/09 04:34:57;;;;;;;6.65;4.70;;;19.40;70.80;;;;;;6124380;23;20141;-69
2023/06/09 04:37:43;;;;;;;8.02;4.97;;;19.40;70.70;;;;;;6121530;23;20014;-69
2023/06/09 04:40:29;;;;;;;7.13;4.80;;;19.40;70.40;;;;;;6121195;23;20022;-69
2023/06/09 04:43:16;;;;;;;5.90;4.40;;;19.50;70.20;;;;;;6122130;23;20020;-69
2023/06/09 04:46:05;;;;;;;7.85;4.70;;;19.50;70.20;;;;;;6120509;23;20010;-69
2023/06/09 04:48:51;;;;;;;7.72;4.43;;;19.50;70.30;;;;;;6121448;23;20368;-70
2023/06/09 04:51:46;;;;;;;8.27;5.40;;;19.50;70.10;;;;;;6119670;23;20387;-68
2023/06/09 04:54:33;;;;;;;7.97;4.85;;;19.50;70.00;;;;;;6120042;23;20021;-69
2023/06/09 04:57:19;;;;;;;7.97;4.75;;;19.60;69.50;;;;;;6121760;23;20010;-68
2023/06/09 05:00:15;;;;;;;8.85;5.13;;;19.60;69.30;;;;;;6122064;23;20100;-69
2023/06/09 05:03:01;;;;;;;6.78;4.65;;;19.60;69.10;;;;;;6121631;23;20026;-70
2023/06/09 05:05:47;;;;;;;7.32;4.30;;;19.60;68.80;;;;;;6121647;23;20014;-69
2023/06/09 05:08:33;;;;;;;7.45;4.28;;;19.60;68.60;;;;;;6121636;23;20014;-70
2023/06/09 05:11:20;;;;;;;7.35;4.63;;;19.60;68.10;;;;;;6123059;23;20010;-70
2023/06/09 05:14:05;;;;;;;6.50;3.78;;;19.60;68.00;;;;;;6120493;23;20010;-70
2023/06/09 05:16:53;;;;;;;8.48;4.07;;;19.60;66.70;;;;;;6122424;23;20006;-74
2023/06/09 05:19:40;;;;;;;5.25;3.50;;;19.70;66.40;;;;;;6123005;23;20014;-75
2023/06/09 05:22:26;;;;;;;5.45;3.50;;;19.70;65.80;;;;;;6119546;23;20108;-75
2023/06/09 05:25:16;;;;;;;4.68;3.25;;;19.80;65.70;;;;;;6121948;23;20026;-77
2023/06/09 05:28:04;;;;;;;7.32;4.00;;;19.80;65.30;;;;;;6123459;23;20021;-78
2023/06/09 05:30:51;;;;;;;6.72;3.38;;;19.90;64.50;;;;;;6124752;23;20034;-79
2023/06/09 05:33:37;;;;;;;5.35;3.58;;;19.90;64.20;;;;;;6124878;23;20018;-78
2023/06/09 05:36:23;;;;;;;4.47;3.35;;;20.00;64.10;;;;;;6121759;23;20014;-77
2023/06/09 05:39:10;;;;;;;5.43;2.95;;;20.10;63.80;;;;;;6125133;23;20010;-79
2023/06/09 05:41:56;;;;;;;5.80;3.42;;;20.20;63.60;;;;;;6122990;23;20018;-79
2023/06/09 05:44:42;;;;;;;7.20;4.13;;;20.30;63.50;;;;;;6124669;23;20009;-74
2023/06/09 05:47:30;;;;;;;10.48;3.30;;;20.40;62.30;;;;;;6123442;23;20059;-75
2023/06/09 05:50:17;;;;;;;8.18;3.13;;;20.40;61.30;;;;;;6099907;23;20010;-75
2023/06/09 05:53:02;;;;;;;9.80;2.88;;;20.50;61.20;;;;;;6124151;23;20048;-73
2023/06/09 05:55:49;;;;;;;5.88;3.10;;;20.70;60.50;;;;;;6123139;23;20029;-74
2023/06/09 05:58:35;;;;;;;6.03;2.88;;;20.80;60.00;;;;;;6122863;23;20013;-77
2023/06/09 06:01:21;;;;;;;6.10;2.92;;;20.90;59.40;;;;;;6121812;23;20018;-74
2023/06/09 06:04:08;;;;;;;7.78;3.25;;;20.90;58.50;;;;;;6123558;23;20425;-75
2023/06/09 06:06:55;;;;;;;5.85;2.60;;;21.00;58.30;;;;;;6122328;23;20013;-69
2023/06/09 06:09:41;;;;;;;7.40;3.03;;;21.10;57.90;;;;;;6125466;23;20010;-73
2023/06/09 06:12:27;;;;;;;5.70;2.50;;;21.20;57.10;;;;;;6123502;23;20125;-74
2023/06/09 06:15:12;;;;;;;3.38;2.45;;;21.30;56.50;;;;;;6124480;23;20046;-72
2023/06/09 06:17:58;;;;;;;6.20;3.17;;;21.30;56.50;;;;;;6121201;23;20025;-69
2023/06/09 06:20:44;;;;;;;4.90;2.97;;;21.40;56.40;;;;;;6121650;23;20077;-68
2023/06/09 06:23:32;;;;;;;5.82;3.58;;;21.40;56.40;;;;;;6122937;23;20503;-68
2023/06/09 06:26:18;;;;;;;4.00;2.58;;;21.50;56.40;;;;;;6123104;23;20523;-68
2023/06/09 06:29:04;;;;;;;7.10;3.20;;;21.60;56.50;;;;;;6124034;23;20423;-69
2023/06/09 06:31:50;;;;;;;7.07;3.42;;;21.70;56.50;;;;;;6120582;23;20109;-71
2023/06/09 06:34:36;;;;;;;8.30;3.25;;;21.80;56.40;;;;;;6121360;23;20025;-70
2023/06/09 06:37:23;;;;;;;4.55;2.78;;;21.90;56.20;;;;;;6123469;23;20603;-70
2023/06/09 06:40:09;;;;;;;5.53;2.78;;;21.90;56.30;;;;;;6100451;23;20607;-69
2023/06/09 06:42:55;;;;;;;5.88;3.13;;;22.00;56.50;;;;;;6120832;23;20470;-70
2023/06/09 06:45:41;;;;;;;4.78;2.72;;;22.10;56.90;;;;;;6121944;23;20036;-70
2023/06/09 06:48:28;;;;;;;4.68;2.92;;;22.20;55.70;;;;;;6123483;23;20204;-71
2023/06/09 06:51:13;;;;;;;6.70;2.97;;;22.30;55.50;;;;;;6123519;23;20010;-71
2023/06/09 06:54:00;;;;;;;9.25;3.20;;;22.30;54.80;;;;;;6121618;23;20018;-70
2023/06/09 06:56:46;;;;;;;6.43;2.88;;;22.40;53.80;;;;;;6122387;23;20511;-71
2023/06/09 06:59:32;;;;;;;4.68;2.65;;;22.50;53.30;;;;;;6122159;23;20017;-71
2023/06/09 07:02:18;;;;;;;5.03;2.85;;;22.50;52.20;;;;;;6123857;23;20356;-71
2023/06/09 07:05:06;;;;;;;4.53;2.30;;;22.60;52.40;;;;;;6124000;23;20010;-72
2023/06/09 07:07:52;;;;;;;4.15;2.50;;;22.60;51.50;;;;;;6122407;23;20052;-69
2023/06/09 07:10:38;;;;;;;7.60;2.60;;;22.60;51.70;;;;;;6122087;23;20808;-71
2023/06/09 07:13:24;;;;;;;4.07;2.35;;;22.70;52.40;;;;;;6121172;23;20128;-71
2023/06/09 07:16:10;;;;;;;5.28;2.95;;;22.80;51.80;;;;;;6120996;23;20002;-70
2023/06/09 07:18:56;;;;;;;5.63;2.40;;;22.90;51.90;;;;;;6123875;23;20021;-73
2023/06/09 07:21:42;;;;;;;4.60;2.58;;;23.00;51.70;;;;;;6120256;23;20028;-72
2023/06/09 07:24:28;;;;;;;4.95;3.15;;;23.00;51.20;;;;;;6122582;23;20021;-71
2023/06/09 07:27:14;;;;;;;4.45;2.53;;;23.10;51.20;;;;;;6121663;23;20054;-70
2023/06/09 07:30:01;;;;;;;4.90;3.00;;;23.20;51.60;;;;;;6123798;23;20005;-72
2023/06/09 07:32:47;;;;;;;4.20;2.47;;;23.30;51.20;;;;;;6120915;23;20097;-72
2023/06/09 07:35:33;;;;;;;4.95;2.20;;;23.40;50.50;;;;;;6122561;23;20017;-70
2023/06/09 07:38:20;;;;;;;2.70;1.98;;;23.50;50.70;;;;;;6120676;23;20042;-71
2023/06/09 07:41:06;;;;;;;5.85;2.65;;;23.60;50.40;;;;;;6122191;23;20028;-73
2023/06/09 07:43:52;;;;;;;4.47;2.38;;;23.80;49.80;;;;;;6121487;23;20088;-77
2023/06/09 07:46:38;;;;;;;5.00;2.70;;;23.80;49.40;;;;;;6120519;23;20010;-77
2023/06/09 07:49:26;;;;;;;5.82;2.65;;;24.00;49.90;;;;;;6123718;23;20100;-76
2023/06/09 07:52:12;;;;;;;5.10;2.60;;;24.10;49.70;;;;;;6120790;23;20080;-78
2023/06/09 07:54:58;;;;;;;5.38;2.58;;;24.30;49.70;;;;;;6122281;23;20356;-78
2023/06/09 07:57:45;;;;;;;5.43;2.45;;;24.40;49.90;;;;;;6120950;23;20163;-79
2023/06/09 08:00:31;;;;;;;7.40;2.50;;;24.60;49.80;;;;;;6121390;23;20088;-77
2023/06/09 08:03:17;;;;;;;6.32;2.40;;;24.70;49.60;;;;;;6118196;23;20014;-77
2023/06/09 08:06:03;;;;;;;7.55;2.40;;;24.70;49.50;;;;;;6120493;23;20085;-78
2023/06/09 08:08:49;;;;;;;5.60;2.55;;;24.70;49.20;;;;;;6121967;23;20010;-77
2023/06/09 08:11:35;;;;;;;3.78;2.08;;;24.80;49.80;;;;;;6119845;23;20017;-69
2023/06/09 08:14:22;;;;;;;5.90;2.65;;;24.90;50.30;;;;;;6120609;23;20333;-72
2023/06/09 08:17:08;;;;;;;4.28;2.92;;;25.00;49.80;;;;;;6098565;23;20014;-71
2023/06/09 08:19:54;;;;;;;4.20;2.72;;;25.10;50.20;;;;;;6120626;23;20052;-71
2023/06/09 08:22:39;;;;;;;5.78;2.38;;;25.10;50.40;;;;;;6120928;23;20021;-72
2023/06/09 08:25:26;;;;;;;5.90;2.53;;;25.20;50.60;;;;;;6119944;23;20018;-72
2023/06/09 08:28:11;;;;;;;9.25;2.90;;;25.30;50.50;;;;;;6121026;23;20014;-71
2023/06/09 08:30:57;;;;;;;4.18;2.50;;;25.40;50.40;;;;;;6120624;23;20108;-71
2023/06/09 08:33:44;;;;;;;7.45;3.33;;;25.50;50.10;;;;;;6098373;23;20097;-71
2023/06/09 08:36:30;;;;;;;4.75;2.70;;;25.50;49.10;;;;;;6121760;23;20101;-71
2023/06/09 08:39:15;;;;;;;4.00;2.35;;;25.40;49.30;;;;;;6122556;23;20392;-70
2023/06/09 08:42:06;;;;;;;5.43;2.83;;;25.40;49.40;;;;;;6118595;23;20018;-70
2023/06/09 08:45:04;;;;;;;3.90;2.35;;;25.30;49.50;;;;;;6117089;23;20014;-71
2023/06/09 08:47:54;;;;;;;4.32;2.60;;;25.30;49.90;;;;;;6120894;23;20452;-73
2023/06/09 08:50:41;;;;;;;5.22;2.95;;;25.30;50.30;;;;;;6118755;23;20029;-72
2023/06/09 08:53:28;;;;;;;4.65;2.85;;;25.30;50.00;;;;;;6120077;23;20013;-71
2023/06/09 08:56:15;;;;;;;6.60;2.42;;;25.30;50.40;;;;;;6118721;23;20021;-71
2023/06/09 08:59:01;;;;;;;4.32;2.65;;;25.40;50.80;;;;;;6119534;23;20013;-70
2023/06/09 09:01:49;;;;;;;4.82;2.67;;;25.60;51.00;;;;;;6118187;23;20033;-70
2023/06/09 09:04:38;;;;;;;9.05;2.70;;;25.60;50.70;;;;;;6098870;23;20010;-71
2023/06/09 09:07:24;;;;;;;6.75;2.80;;;25.80;50.50;;;;;;6112170;23;20077;-71
2023/06/09 09:10:10;;;;;;;4.18;2.60;;;25.80;50.20;;;;;;6115796;23;20057;-71
2023/06/09 09:12:58;;;;;;;5.68;2.80;;;25.80;50.60;;;;;;6117287;23;20097;-71
2023/06/09 09:15:51;;;;;;;5.53;3.20;;;26.00;50.20;;;;;;6114167;23;20014;-70
2023/06/09 09:18:37;;;;;;;3.67;2.90;;;26.00;50.20;;;;;;6116856;23;20389;-69
2023/06/09 09:21:23;;;;;;;5.97;2.60;;;26.10;50.10;;;;;;6120984;23;20101;-68
2023/06/09 09:24:12;;;;;;;5.00;2.55;;;26.00;49.40;;;;;;6114379;23;20560;-69
2023/06/09 09:26:58;;;;;;;4.38;2.30;;;26.00;49.70;;;;;;6113829;23;20034;-70
2023/06/09 09:29:45;;;;;;;4.70;2.83;;;26.00;49.30;;;;;;6111116;23;20039;-70
2023/06/09 09:32:31;;;;;;;4.97;2.42;;;26.00;50.20;;;;;;6114779;23;20029;-70
2023/06/09 09:35:17;;;;;;;4.85;3.33;;;26.10;49.50;;;;;;6118790;23;20037;-69
2023/06/09 09:38:03;;;;;;;4.38;2.70;;;26.10;49.50;;;;;;6111021;23;20021;-69
2023/06/09 09:40:51;;;;;;;5.35;3.15;;;26.20;49.70;;;;;;6109515;23;20037;-69
2023/06/09 09:43:39;;;;;;;7.68;3.30;;;26.20;49.80;;;;;;6113274;23;20385;-69
2023/06/09 09:46:25;;;;;;;5.18;2.63;;;26.30;49.70;;;;;;6114183;23;20353;-72
2023/06/09 09:49:22;;;;;;;5.50;3.03;;;26.30;50.10;;;;;;6116727;23;20340;-69
2023/06/09 09:52:08;;;;;;;4.25;2.63;;;26.40;50.30;;;;;;6117169;23;20013;-67
2023/06/09 09:54:55;;;;;;;6.25;3.22;;;26.50;50.50;;;;;;6119416;23;20478;-72
2023/06/09 09:57:42;;;;;;;4.28;2.67;;;26.50;50.60;;;;;;6119660;23;20018;-71
2023/06/09 10:00:29;;;;;;;7.93;3.63;;;26.50;50.50;;;;;;6119080;23;20037;-74
2023/06/09 10:03:17;;;;;;;4.55;3.08;;;26.50;50.70;;;;;;6119538;23;20014;-72
2023/06/09 10:06:06;;;;;;;3.63;2.40;;;26.50;51.10;;;;;;6120631;23;20599;-72
2023/06/09 10:08:52;;;;;;;6.18;2.85;;;26.60;50.80;;;;;;6123333;23;20037;-73
2023/06/09 10:11:39;;;;;;;3.58;2.70;;;26.60;50.70;;;;;;6120483;23;20013;-73
2023/06/09 10:14:27;;;;;;;4.65;2.90;;;26.70;50.40;;;;;;6122632;23;20059;-73
2023/06/09 10:17:15;;;;;;;4.50;2.85;;;26.70;50.30;;;;;;6121214;23;20014;-73
2023/06/09 10:20:04;;;;;;;3.90;2.75;;;26.80;50.40;;;;;;6118964;23;20010;-72
2023/06/09 10:22:52;;;;;;;3.35;2.47;;;26.80;50.10;;;;;;6120272;23;20022;-72
2023/06/09 10:25:38;;;;;;;5.10;3.47;;;26.80;49.70;;;;;;6120052;23;20030;-72
2023/06/09 10:28:24;;;;;;;3.70;2.50;;;26.90;49.30;;;;;;6120635;23;20041;-72
2023/06/09 10:31:12;;;;;;;4.40;3.30;;;26.90;49.60;;;;;;6118650;23;20010;-71
2023/06/09 10:33:58;;;;;;;5.45;3.00;;;27.00;49.70;;;;;;6119306;23;20041;-69
2023/06/09 10:36:45;;;;;;;5.72;2.97;;;27.00;48.80;;;;;;6120672;23;20017;-71
2023/06/09 10:39:55;;;;;;;17.58;3.70;;;27.00;48.50;;;;;;6120303;23;20049;-71
2023/06/09 10:43:03;;;;;;;4.35;2.17;;;27.10;48.20;;;;;;6122967;23;20025;-70
2023/06/09 10:45:57;;;;;;;5.03;2.63;;;27.20;48.50;;;;;;6120072;23;20032;-71
2023/06/09 10:48:50;;;;;;;4.13;2.67;;;27.30;48.60;;;;;;6120574;23;20010;-72
2023/06/09 10:51:39;;;;;;;4.00;2.45;;;27.40;48.60;;;;;;6121903;23;20226;-71
2023/06/09 10:54:26;;;;;;;13.13;2.97;;;27.50;48.30;;;;;;6120673;23;20017;-71
2023/06/09 10:57:34;;;;;;;3.92;2.58;;;27.60;48.20;;;;;;6120912;23;20010;-70
2023/06/09 11:00:21;;;;;;;6.10;2.80;;;27.60;48.40;;;;;;6121764;23;20094;-71
2023/06/09 11:03:11;;;;;;;4.10;2.58;;;27.70;48.10;;;;;;6123334;23;20018;-70
2023/06/09 11:06:01;;;;;;;5.55;3.30;;;27.70;47.90;;;;;;6120056;23;20440;-71
2023/06/09 11:09:11;;;;;;;6.13;2.78;;;27.80;48.10;;;;;;6100571;23;20085;-72
2023/06/09 11:11:57;;;;;;;9.93;3.53;;;27.90;48.40;;;;;;6123187;23;20356;-71
2023/06/09 11:14:46;;;;;;;6.93;2.67;;;28.00;47.60;;;;;;6099073;23;20023;-72
2023/06/09 11:17:41;;;;;;;4.82;2.53;;;28.00;47.50;;;;;;6122038;23;20356;-74
2023/06/09 11:20:28;;;;;;;5.70;2.50;;;28.00;47.50;;;;;;6118626;23;20017;-71
2023/06/09 11:23:15;;;;;;;3.80;2.85;;;28.10;47.00;;;;;;6119053;23;20017;-72
2023/06/09 11:26:01;;;;;;;6.03;3.08;;;28.10;47.00;;;;;;6119082;23;20022;-71
2023/06/09 11:28:47;;;;;;;3.80;2.80;;;28.10;47.10;;;;;;6100630;23;20018;-72
2023/06/09 11:31:48;;;;;;;6.35;2.63;;;28.20;47.00;;;;;;6121261;23;20448;-71
2023/06/09 11:34:55;;;;;;;4.30;2.80;;;28.30;47.20;;;;;;6121607;23;20336;-72
2023/06/09 11:37:41;;;;;;;4.28;2.60;;;28.30;47.40;;;;;;6123119;23;20368;-72
2023/06/09 11:40:28;;;;;;;4.57;3.17;;;28.30;46.60;;;;;;6121757;23;20010;-70
2023/06/09 11:43:15;;;;;;;5.15;2.80;;;28.30;46.50;;;;;;6122199;23;20010;-71
2023/06/09 11:46:02;;;;;;;5.50;3.30;;;28.40;46.80;;;;;;6122796;23;20077;-70
2023/06/09 11:49:05;;;;;;;5.18;3.30;;;28.40;46.70;;;;;;6120997;23;20016;-71
2023/06/09 11:51:55;;;;;;;3.92;2.58;;;28.50;46.80;;;;;;6099422;23;20006;-73
2023/06/09 11:54:46;;;;;;;3.67;2.50;;;28.50;46.50;;;;;;6122595;23;20463;-75
2023/06/09 11:57:32;;;;;;;6.07;3.50;;;28.50;46.40;;;;;;6119617;23;20072;-73
2023/06/09 12:00:19;;;;;;;4.03;2.65;;;28.60;46.70;;;;;;6122356;23;20006;-73
2023/06/09 12:03:05;;;;;;;5.53;2.97;;;28.60;46.30;;;;;;6121920;23;20022;-73
2023/06/09 12:05:51;;;;;;;4.53;2.97;;;28.60;46.10;;;;;;6123171;23;20014;-74
2023/06/09 12:08:37;;;;;;;6.43;3.03;;;28.70;46.00;;;;;;6119070;23;20013;-71
2023/06/09 12:11:23;;;;;;;4.50;2.70;;;28.80;46.10;;;;;;6121447;23;20092;-71
2023/06/09 12:14:09;;;;;;;10.00;2.92;;;28.80;45.70;;;;;;6123065;23;20473;-71
2023/06/09 12:16:55;;;;;;;5.95;3.20;;;28.80;45.50;;;;;;6120576;23;20010;-71
2023/06/09 12:19:41;;;;;;;6.25;3.40;;;28.80;45.80;;;;;;6123262;23;20013;-71
2023/06/09 12:22:37;;;;;;;4.47;2.90;;;28.80;45.60;;;;;;6119526;23;20444;-72
2023/06/09 12:25:27;;;;;;;6.20;3.47;;;28.90;45.30;;;;;;6118836;23;20487;-72
2023/06/09 12:28:27;;;;;;;4.88;2.70;;;28.90;45.20;;;;;;6119130;23;20089;-71
2023/06/09 12:31:13;;;;;;;6.82;2.92;;;29.00;45.20;;;;;;6116131;23;20013;-72
2023/06/09 12:34:00;;;;;;;3.25;2.45;;;29.00;44.60;;;;;;6117847;23;20020;-72
2023/06/09 12:36:47;;;;;;;5.85;2.97;;;29.00;45.00;;;;;;6117788;23;20081;-73
2023/06/09 12:39:33;;;;;;;5.28;3.55;;;29.20;45.00;;;;;;6118053;23;20002;-71
2023/06/09 12:42:20;;;;;;;4.18;2.80;;;29.30;44.90;;;;;;6115924;23;20025;-71
2023/06/09 12:45:06;;;;;;;3.70;2.90;;;29.30;44.40;;;;;;6098475;23;20010;-71
2023/06/09 12:47:52;;;;;;;5.43;2.50;;;29.30;44.20;;;;;;6121890;23;20396;-72
2023/06/09 12:50:39;;;;;;;3.80;3.00;;;29.30;44.00;;;;;;6120249;23;20010;-71
2023/06/09 12:53:24;;;;;;;4.13;3.10;;;29.30;43.90;;;;;;6120470;23;20018;-71
2023/06/09 12:56:10;;;;;;;3.47;2.65;;;29.30;43.70;;;;;;6121086;23;20006;-71
2023/06/09 12:58:57;;;;;;;5.32;2.97;;;29.30;43.70;;;;;;6123285;23;20037;-71
2023/06/09 13:01:47;;;;;;;7.43;2.38;;;29.30;44.10;;;;;;6118944;23;20021;-71
2023/06/09 13:04:33;;;;;;;4.10;3.05;;;29.40;44.00;;;;;;6120009;23;20017;-70
2023/06/09 13:07:19;;;;;;;5.38;2.85;;;29.50;44.00;;;;;;6121331;23;20014;-70
2023/06/09 13:10:05;;;;;;;6.40;2.65;;;29.60;43.70;;;;;;6120900;23;20025;-70
2023/06/09 13:12:52;;;;;;;3.90;2.70;;;29.70;43.90;;;;;;6121543;23;20408;-70
2023/06/09 13:15:38;;;;;;;5.65;2.95;;;29.80;43.70;;;;;;6121503;23;20014;-71
2023/06/09 13:18:24;;;;;;;4.68;3.03;;;29.80;43.40;;;;;;6117532;23;20014;-71
2023/06/09 13:21:10;;;;;;;3.65;2.80;;;29.80;43.00;;;;;;6120047;23;20018;-72
2023/06/09 13:23:57;;;;;;;4.03;2.85;;;29.80;43.10;;;;;;6120418;23;20006;-70
2023/06/09 13:26:46;;;;;;;3.97;3.05;;;29.80;43.10;;;;;;6120854;23;20096;-70
2023/06/09 13:29:32;;;;;;;6.18;3.28;;;29.90;43.20;;;;;;6120593;23;20022;-71
2023/06/09 13:32:18;;;;;;;4.38;3.00;;;29.90;42.90;;;;;;6121816;23;20033;-70
2023/06/09 13:35:04;;;;;;;5.13;2.95;;;30.00;43.20;;;;;;6120525;23;20021;-70
2023/06/09 13:37:50;;;;;;;7.13;3.67;;;30.10;43.00;;;;;;6122317;23;20376;-70
2023/06/09 13:40:39;;;;;;;5.57;3.30;;;30.10;42.70;;;;;;6118154;23;20054;-72
2023/06/09 13:43:26;;;;;;;7.35;3.53;;;30.20;42.70;;;;;;6119817;23;20049;-70
2023/06/09 13:46:12;;;;;;;5.90;2.92;;;30.20;42.50;;;;;;6100147;23;20013;-70
2023/06/09 13:48:58;;;;;;;3.97;3.25;;;30.30;42.70;;;;;;6120475;23;20018;-71
2023/06/09 13:51:44;;;;;;;6.13;3.10;;;30.40;42.60;;;;;;6122642;23;20025;-71
2023/06/09 13:54:30;;;;;;;4.60;2.97;;;30.40;42.20;;;;;;6120887;23;20744;-70
2023/06/09 13:57:16;;;;;;;6.13;3.00;;;30.40;42.10;;;;;;6122258;23;20006;-70
2023/06/09 14:00:03;;;;;;;3.97;2.70;;;30.30;42.20;;;;;;6125024;23;20073;-70
2023/06/09 14:02:49;;;;;;;5.13;3.20;;;30.40;42.10;;;;;;6122580;23;20027;-68
2023/06/09 14:05:35;;;;;;;6.43;3.17;;;30.40;42.30;;;;;;6121984;23;20085;-68
2023/06/09 14:08:22;;;;;;;8.00;3.65;;;30.40;42.10;;;;;;6120508;23;20050;-68
2023/06/09 14:11:08;;;;;;;3.30;2.50;;;30.40;42.20;;;;;;6121831;23;20169;-68
2023/06/09 14:13:54;;;;;;;4.88;3.08;;;30.60;42.50;;;;;;6123728;23;20451;-68
2023/06/09 14:16:42;;;;;;;4.35;2.83;;;30.70;42.50;;;;;;6124152;23;20037;-68
2023/06/09 14:19:28;;;;;;;6.43;2.85;;;30.70;42.00;;;;;;6123049;23;20134;-68
2023/06/09 14:22:14;;;;;;;6.97;3.22;;;30.80;42.20;;;;;;6122166;23;20032;-67
2023/06/09 14:24:59;;;;;;;5.97;2.92;;;30.80;41.90;;;;;;6121223;23;20085;-68
2023/06/09 14:27:47;;;;;;;4.40;3.03;;;30.70;41.90;;;;;;6123051;23;20392;-68
2023/06/09 14:30:33;;;;;;;5.07;3.60;;;30.70;42.00;;;;;;6097223;23;20855;-66